sensor_id;sensor_type;location;lat;lon;timestamp;temperature;humidity
1175;DHT22;576;48.418;10.074;2022-10-30T00:00:40;24.20;71.70
1175;DHT22;576;48.418;10.074;2022-10-30T00:03:10;24.20;71.70
1175;DHT22;576;48.418;10.074;2022-10-30T00:05:41;24.20;71.70
1175;DHT22;576;48.418;10.074;2022-10-30T00:08:11;24.20;71.70
1175;DHT22;576;48.418;10.074;2022-10-30T00:10:39;24.20;71.70
1175;DHT22;576;48.418;10.074;2022-10-30T00:13:08;24.20;71.70
1175;DHT22;576;48.418;10.074;2022-10-30T00:15:36;24.20;71.70
1175;DHT22;576;48.418;10.074;2022-10-30T00:18:05;24.20;71.60
1175;DHT22;576;48.418;10.074;2022-10-30T00:20:35;24.20;71.70
1175;DHT22;576;48.418;10.074;2022-10-30T00:23:04;24.20;71.70
1175;DHT22;576;48.418;10.074;2022-10-30T00:25:33;24.20;71.70
1175;DHT22;576;48.418;10.074;2022-10-30T00:28:02;24.20;71.60
1175;DHT22;576;48.418;10.074;2022-10-30T00:30:30;24.20;71.70
1175;DHT22;576;48.418;10.074;2022-10-30T00:32:58;24.20;71.70
1175;DHT22;576;48.418;10.074;2022-10-30T00:35:27;24.20;71.60
1175;DHT22;576;48.418;10.074;2022-10-30T00:37:55;24.20;71.60
1175;DHT22;576;48.418;10.074;2022-10-30T00:40:25;24.20;71.60
1175;DHT22;576;48.418;10.074;2022-10-30T00:42:53;24.20;71.60
1175;DHT22;576;48.418;10.074;2022-10-30T00:45:22;24.20;71.70
1175;DHT22;576;48.418;10.074;2022-10-30T00:47:51;24.20;71.60
1175;DHT22;576;48.418;10.074;2022-10-30T00:50:23;24.20;71.60
1175;DHT22;576;48.418;10.074;2022-10-30T00:53:01;24.20;71.60
1175;DHT22;576;48.418;10.074;2022-10-30T00:55:34;24.20;71.60
1175;DHT22;576;48.418;10.074;2022-10-30T00:58:08;24.20;71.60
1175;DHT22;576;48.418;10.074;2022-10-30T01:00:38;24.20;71.60
1175;DHT22;576;48.418;10.074;2022-10-30T01:03:08;24.20;71.60
1175;DHT22;576;48.418;10.074;2022-10-30T01:05:38;24.20;71.60
1175;DHT22;576;48.418;10.074;2022-10-30T01:08:06;24.20;71.60
1175;DHT22;576;48.418;10.074;2022-10-30T01:10:37;24.10;71.60
1175;DHT22;576;48.418;10.074;2022-10-30T01:13:06;24.10;71.60
1175;DHT22;576;48.418;10.074;2022-10-30T01:15:39;24.10;71.50
1175;DHT22;576;48.418;10.074;2022-10-30T01:18:32;24.10;71.60
1175;DHT22;576;48.418;10.074;2022-10-30T01:21:17;24.10;71.50
1175;DHT22;576;48.418;10.074;2022-10-30T01:23:59;24.10;71.60
1175;DHT22;576;48.418;10.074;2022-10-30T01:26:37;24.10;71.60
1175;DHT22;576;48.418;10.074;2022-10-30T01:29:16;24.10;71.60
1175;DHT22;576;48.418;10.074;2022-10-30T01:31:58;24.10;71.60
1175;DHT22;576;48.418;10.074;2022-10-30T01:34:38;24.10;71.50
1175;DHT22;576;48.418;10.074;2022-10-30T01:37:15;24.10;71.50
1175;DHT22;576;48.418;10.074;2022-10-30T01:39:45;24.10;71.50
1175;DHT22;576;48.418;10.074;2022-10-30T01:42:46;24.10;71.50
1175;DHT22;576;48.418;10.074;2022-10-30T01:45:35;24.10;71.50
1175;DHT22;576;48.418;10.074;2022-10-30T01:48:22;24.10;71.60
1175;DHT22;576;48.418;10.074;2022-10-30T01:51:03;24.10;71.50
1175;DHT22;576;48.418;10.074;2022-10-30T01:53:45;24.10;71.50
1175;DHT22;576;48.418;10.074;2022-10-30T01:56:20;24.10;71.50
1175;DHT22;576;48.418;10.074;2022-10-30T01:59:06;24.10;71.50
1175;DHT22;576;48.418;10.074;2022-10-30T02:01:36;24.10;71.50
1175;DHT22;576;48.418;10.074;2022-10-30T02:04:07;24.10;71.50
1175;DHT22;576;48.418;10.074;2022-10-30T02:06:36;24.10;71.50
1175;DHT22;576;48.418;10.074;2022-10-30T02:09:05;24.10;71.50
1175;DHT22;576;48.418;10.074;2022-10-30T02:11:36;24.10;71.50
1175;DHT22;576;48.418;10.074;2022-10-30T02:14:07;24.00;71.50
1175;DHT22;576;48.418;10.074;2022-10-30T02:16:40;24.10;71.50
1175;DHT22;576;48.418;10.074;2022-10-30T02:19:09;24.00;71.50
1175;DHT22;576;48.418;10.074;2022-10-30T02:21:38;24.00;71.50
1175;DHT22;576;48.418;10.074;2022-10-30T02:24:07;24.00;71.40
1175;DHT22;576;48.418;10.074;2022-10-30T02:26:35;24.00;71.40
1175;DHT22;576;48.418;10.074;2022-10-30T02:29:04;24.00;71.50
1175;DHT22;576;48.418;10.074;2022-10-30T02:31:33;24.00;71.40
1175;DHT22;576;48.418;10.074;2022-10-30T02:34:01;24.00;71.40
1175;DHT22;576;48.418;10.074;2022-10-30T02:36:29;24.00;71.40
1175;DHT22;576;48.418;10.074;2022-10-30T02:38:59;24.00;71.40
1175;DHT22;576;48.418;10.074;2022-10-30T02:41:28;24.00;71.40
1175;DHT22;576;48.418;10.074;2022-10-30T02:43:56;24.00;71.40
1175;DHT22;576;48.418;10.074;2022-10-30T02:46:24;24.00;71.40
1175;DHT22;576;48.418;10.074;2022-10-30T02:48:52;24.00;71.40
1175;DHT22;576;48.418;10.074;2022-10-30T02:51:20;24.00;71.40
1175;DHT22;576;48.418;10.074;2022-10-30T02:53:48;24.00;71.30
1175;DHT22;576;48.418;10.074;2022-10-30T02:56:18;24.00;71.40
1175;DHT22;576;48.418;10.074;2022-10-30T02:58:46;24.00;71.30
1175;DHT22;576;48.418;10.074;2022-10-30T03:01:16;24.00;71.30
1175;DHT22;576;48.418;10.074;2022-10-30T03:03:45;24.00;71.30
1175;DHT22;576;48.418;10.074;2022-10-30T03:06:15;24.00;71.30
1175;DHT22;576;48.418;10.074;2022-10-30T03:08:43;24.00;71.30
1175;DHT22;576;48.418;10.074;2022-10-30T03:11:13;24.00;71.30
1175;DHT22;576;48.418;10.074;2022-10-30T03:13:44;24.00;71.30
1175;DHT22;576;48.418;10.074;2022-10-30T03:16:15;24.00;71.30
1175;DHT22;576;48.418;10.074;2022-10-30T03:18:45;24.00;71.30
1175;DHT22;576;48.418;10.074;2022-10-30T03:21:15;24.00;71.30
1175;DHT22;576;48.418;10.074;2022-10-30T03:23:44;24.00;71.30
1175;DHT22;576;48.418;10.074;2022-10-30T03:26:12;24.00;71.30
1175;DHT22;576;48.418;10.074;2022-10-30T03:29:04;23.90;71.30
1175;DHT22;576;48.418;10.074;2022-10-30T03:31:32;23.90;71.30
1175;DHT22;576;48.418;10.074;2022-10-30T03:34:09;23.90;71.30
1175;DHT22;576;48.418;10.074;2022-10-30T03:36:40;23.90;71.30
1175;DHT22;576;48.418;10.074;2022-10-30T03:39:08;23.90;71.30
1175;DHT22;576;48.418;10.074;2022-10-30T03:41:37;23.90;71.30
1175;DHT22;576;48.418;10.074;2022-10-30T03:44:08;23.90;71.20
1175;DHT22;576;48.418;10.074;2022-10-30T03:46:37;23.90;71.20
1175;DHT22;576;48.418;10.074;2022-10-30T03:49:16;23.90;71.20
1175;DHT22;576;48.418;10.074;2022-10-30T03:51:44;23.90;71.20
1175;DHT22;576;48.418;10.074;2022-10-30T03:54:12;23.90;71.20
1175;DHT22;576;48.418;10.074;2022-10-30T03:56:41;23.90;71.20
1175;DHT22;576;48.418;10.074;2022-10-30T03:59:13;23.90;71.20
1175;DHT22;576;48.418;10.074;2022-10-30T04:01:49;23.90;71.20
1175;DHT22;576;48.418;10.074;2022-10-30T04:04:17;23.90;71.20
1175;DHT22;576;48.418;10.074;2022-10-30T04:06:46;23.90;71.20
1175;DHT22;576;48.418;10.074;2022-10-30T04:09:15;23.90;71.20
1175;DHT22;576;48.418;10.074;2022-10-30T04:11:43;23.90;71.20
1175;DHT22;576;48.418;10.074;2022-10-30T04:14:13;23.90;71.20
1175;DHT22;576;48.418;10.074;2022-10-30T04:16:41;23.90;71.20
1175;DHT22;576;48.418;10.074;2022-10-30T04:19:09;23.80;71.20
1175;DHT22;576;48.418;10.074;2022-10-30T04:21:37;23.80;71.20
1175;DHT22;576;48.418;10.074;2022-10-30T04:24:06;23.90;71.10
1175;DHT22;576;48.418;10.074;2022-10-30T04:26:35;23.80;71.10
1175;DHT22;576;48.418;10.074;2022-10-30T04:29:03;23.80;71.10
1175;DHT22;576;48.418;10.074;2022-10-30T04:31:33;23.80;71.10
1175;DHT22;576;48.418;10.074;2022-10-30T04:34:01;23.80;71.10
1175;DHT22;576;48.418;10.074;2022-10-30T04:36:29;23.80;71.10
1175;DHT22;576;48.418;10.074;2022-10-30T04:39:00;23.80;71.10
1175;DHT22;576;48.418;10.074;2022-10-30T04:41:29;23.80;71.10
1175;DHT22;576;48.418;10.074;2022-10-30T04:44:03;23.80;71.10
1175;DHT22;576;48.418;10.074;2022-10-30T04:46:33;23.80;71.10
1175;DHT22;576;48.418;10.074;2022-10-30T04:49:07;23.80;71.10
1175;DHT22;576;48.418;10.074;2022-10-30T04:51:35;23.80;71.10
1175;DHT22;576;48.418;10.074;2022-10-30T04:54:05;23.80;71.20
1175;DHT22;576;48.418;10.074;2022-10-30T04:56:35;23.80;71.10
1175;DHT22;576;48.418;10.074;2022-10-30T04:59:04;23.80;71.10
1175;DHT22;576;48.418;10.074;2022-10-30T05:01:34;23.80;71.10
1175;DHT22;576;48.418;10.074;2022-10-30T05:04:03;23.80;71.10
1175;DHT22;576;48.418;10.074;2022-10-30T05:06:32;23.80;71.10
1175;DHT22;576;48.418;10.074;2022-10-30T05:09:01;23.80;71.10
1175;DHT22;576;48.418;10.074;2022-10-30T05:11:37;23.80;71.10
1175;DHT22;576;48.418;10.074;2022-10-30T05:14:07;23.80;71.10
1175;DHT22;576;48.418;10.074;2022-10-30T05:16:38;23.80;71.10
1175;DHT22;576;48.418;10.074;2022-10-30T05:19:06;23.80;71.10
1175;DHT22;576;48.418;10.074;2022-10-30T05:21:35;23.80;71.10
1175;DHT22;576;48.418;10.074;2022-10-30T05:24:04;23.70;71.10
1175;DHT22;576;48.418;10.074;2022-10-30T05:26:41;23.70;71.10
1175;DHT22;576;48.418;10.074;2022-10-30T05:29:11;23.70;71.10
1175;DHT22;576;48.418;10.074;2022-10-30T05:31:40;23.70;71.10
1175;DHT22;576;48.418;10.074;2022-10-30T05:34:14;23.70;71.10
1175;DHT22;576;48.418;10.074;2022-10-30T05:36:44;23.70;71.10
1175;DHT22;576;48.418;10.074;2022-10-30T05:39:13;23.70;71.10
1175;DHT22;576;48.418;10.074;2022-10-30T05:41:46;23.70;71.00
1175;DHT22;576;48.418;10.074;2022-10-30T05:44:16;23.70;71.00
1175;DHT22;576;48.418;10.074;2022-10-30T05:47:06;23.70;71.00
1175;DHT22;576;48.418;10.074;2022-10-30T05:49:34;23.70;71.00
1175;DHT22;576;48.418;10.074;2022-10-30T05:52:06;23.70;71.00
1175;DHT22;576;48.418;10.074;2022-10-30T05:54:34;23.70;71.00
1175;DHT22;576;48.418;10.074;2022-10-30T05:57:11;23.70;71.00
1175;DHT22;576;48.418;10.074;2022-10-30T05:59:40;23.70;71.00
1175;DHT22;576;48.418;10.074;2022-10-30T06:02:09;23.70;71.00
1175;DHT22;576;48.418;10.074;2022-10-30T06:04:37;23.70;71.00
1175;DHT22;576;48.418;10.074;2022-10-30T06:07:10;23.70;71.00
1175;DHT22;576;48.418;10.074;2022-10-30T06:09:38;23.70;70.90
1175;DHT22;576;48.418;10.074;2022-10-30T06:12:51;23.70;70.90
1175;DHT22;576;48.418;10.074;2022-10-30T06:15:30;23.70;71.00
1175;DHT22;576;48.418;10.074;2022-10-30T06:18:00;23.70;70.90
1175;DHT22;576;48.418;10.074;2022-10-30T06:20:40;23.70;70.90
1175;DHT22;576;48.418;10.074;2022-10-30T06:23:27;23.70;70.90
1175;DHT22;576;48.418;10.074;2022-10-30T06:26:04;23.70;70.90
1175;DHT22;576;48.418;10.074;2022-10-30T06:28:53;23.70;70.90
1175;DHT22;576;48.418;10.074;2022-10-30T06:31:21;23.70;70.90
1175;DHT22;576;48.418;10.074;2022-10-30T06:33:51;23.70;70.90
1175;DHT22;576;48.418;10.074;2022-10-30T06:36:19;23.70;70.80
1175;DHT22;576;48.418;10.074;2022-10-30T06:38:47;23.70;70.80
1175;DHT22;576;48.418;10.074;2022-10-30T06:41:17;23.70;70.90
1175;DHT22;576;48.418;10.074;2022-10-30T06:44:15;23.70;70.90
1175;DHT22;576;48.418;10.074;2022-10-30T06:46:44;23.70;70.80
1175;DHT22;576;48.418;10.074;2022-10-30T06:49:13;23.70;70.80
1175;DHT22;576;48.418;10.074;2022-10-30T06:51:41;23.70;70.80
1175;DHT22;576;48.418;10.074;2022-10-30T06:54:10;23.70;70.80
1175;DHT22;576;48.418;10.074;2022-10-30T06:56:38;23.70;70.70
1175;DHT22;576;48.418;10.074;2022-10-30T06:59:35;23.70;70.70
1175;DHT22;576;48.418;10.074;2022-10-30T07:02:22;23.70;70.70
1175;DHT22;576;48.418;10.074;2022-10-30T07:04:55;23.60;70.70
1175;DHT22;576;48.418;10.074;2022-10-30T07:07:23;23.70;70.60
1175;DHT22;576;48.418;10.074;2022-10-30T07:09:51;23.70;70.50
1175;DHT22;576;48.418;10.074;2022-10-30T07:12:27;23.70;70.50
1175;DHT22;576;48.418;10.074;2022-10-30T07:15:08;23.70;70.50
1175;DHT22;576;48.418;10.074;2022-10-30T07:17:41;23.70;70.40
1175;DHT22;576;48.418;10.074;2022-10-30T07:20:20;23.70;70.30
1175;DHT22;576;48.418;10.074;2022-10-30T07:22:48;23.70;70.30
1175;DHT22;576;48.418;10.074;2022-10-30T07:25:17;23.70;70.30
1175;DHT22;576;48.418;10.074;2022-10-30T07:27:57;23.70;70.20
1175;DHT22;576;48.418;10.074;2022-10-30T07:30:37;23.70;70.20
1175;DHT22;576;48.418;10.074;2022-10-30T07:33:14;23.70;70.20
1175;DHT22;576;48.418;10.074;2022-10-30T07:35:59;23.70;70.20
1175;DHT22;576;48.418;10.074;2022-10-30T07:38:44;23.70;70.10
1175;DHT22;576;48.418;10.074;2022-10-30T07:41:26;23.70;70.10
1175;DHT22;576;48.418;10.074;2022-10-30T07:44:13;23.70;70.60
1175;DHT22;576;48.418;10.074;2022-10-30T07:47:04;23.70;71.10
1175;DHT22;576;48.418;10.074;2022-10-30T07:49:44;23.70;71.30
1175;DHT22;576;48.418;10.074;2022-10-30T07:52:14;23.70;71.30
1175;DHT22;576;48.418;10.074;2022-10-30T07:54:46;23.70;71.20
1175;DHT22;576;48.418;10.074;2022-10-30T07:57:34;23.70;71.30
1175;DHT22;576;48.418;10.074;2022-10-30T08:00:13;23.70;71.30
1175;DHT22;576;48.418;10.074;2022-10-30T08:02:55;23.80;71.40
1175;DHT22;576;48.418;10.074;2022-10-30T08:05:47;23.70;71.50
1175;DHT22;576;48.418;10.074;2022-10-30T08:08:34;23.80;71.50
1175;DHT22;576;48.418;10.074;2022-10-30T08:11:27;23.80;71.50
1175;DHT22;576;48.418;10.074;2022-10-30T08:13:58;23.80;71.60
1175;DHT22;576;48.418;10.074;2022-10-30T08:16:26;23.80;71.50
1175;DHT22;576;48.418;10.074;2022-10-30T08:18:56;23.80;71.60
1175;DHT22;576;48.418;10.074;2022-10-30T08:21:24;23.80;71.60
1175;DHT22;576;48.418;10.074;2022-10-30T08:24:06;23.80;71.70
1175;DHT22;576;48.418;10.074;2022-10-30T08:26:34;23.80;71.70
1175;DHT22;576;48.418;10.074;2022-10-30T08:29:03;23.80;71.70
1175;DHT22;576;48.418;10.074;2022-10-30T08:31:31;23.80;71.80
1175;DHT22;576;48.418;10.074;2022-10-30T08:34:02;23.80;71.80
1175;DHT22;576;48.418;10.074;2022-10-30T08:36:47;23.80;71.80
1175;DHT22;576;48.418;10.074;2022-10-30T08:39:17;23.80;71.80
1175;DHT22;576;48.418;10.074;2022-10-30T08:42:04;23.90;71.80
1175;DHT22;576;48.418;10.074;2022-10-30T08:44:38;23.90;71.80
1175;DHT22;576;48.418;10.074;2022-10-30T08:47:25;23.90;71.90
1175;DHT22;576;48.418;10.074;2022-10-30T08:49:53;23.90;71.90
1175;DHT22;576;48.418;10.074;2022-10-30T08:52:26;23.90;71.90
1175;DHT22;576;48.418;10.074;2022-10-30T08:54:56;23.90;71.90
1175;DHT22;576;48.418;10.074;2022-10-30T08:57:25;23.90;71.80
1175;DHT22;576;48.418;10.074;2022-10-30T08:59:56;23.90;71.80
1175;DHT22;576;48.418;10.074;2022-10-30T09:02:42;23.90;71.80
1175;DHT22;576;48.418;10.074;2022-10-30T09:05:46;23.90;71.70
1175;DHT22;576;48.418;10.074;2022-10-30T09:08:33;23.90;71.70
1175;DHT22;576;48.418;10.074;2022-10-30T09:11:10;23.90;71.60
1175;DHT22;576;48.418;10.074;2022-10-30T09:13:39;24.00;71.60
1175;DHT22;576;48.418;10.074;2022-10-30T09:16:08;24.00;71.60
1175;DHT22;576;48.418;10.074;2022-10-30T09:18:37;24.00;71.70
1175;DHT22;576;48.418;10.074;2022-10-30T09:21:05;24.00;71.90
1175;DHT22;576;48.418;10.074;2022-10-30T09:23:39;24.00;72.00
1175;DHT22;576;48.418;10.074;2022-10-30T09:26:28;24.00;71.90
1175;DHT22;576;48.418;10.074;2022-10-30T09:29:31;24.00;71.90
1175;DHT22;576;48.418;10.074;2022-10-30T09:32:04;24.00;71.90
1175;DHT22;576;48.418;10.074;2022-10-30T09:34:58;24.10;71.90
1175;DHT22;576;48.418;10.074;2022-10-30T09:37:33;24.10;71.90
1175;DHT22;576;48.418;10.074;2022-10-30T09:40:01;24.10;71.90
1175;DHT22;576;48.418;10.074;2022-10-30T09:42:40;24.10;71.90
1175;DHT22;576;48.418;10.074;2022-10-30T09:48:43;24.10;71.70
1175;DHT22;576;48.418;10.074;2022-10-30T09:51:27;24.10;71.80
1175;DHT22;576;48.418;10.074;2022-10-30T09:54:05;24.10;71.70
1175;DHT22;576;48.418;10.074;2022-10-30T09:56:44;24.20;71.90
1175;DHT22;576;48.418;10.074;2022-10-30T09:59:24;24.20;72.10
1175;DHT22;576;48.418;10.074;2022-10-30T10:01:59;24.20;72.10
1175;DHT22;576;48.418;10.074;2022-10-30T10:04:37;24.20;72.10
1175;DHT22;576;48.418;10.074;2022-10-30T10:07:28;24.20;72.10
1175;DHT22;576;48.418;10.074;2022-10-30T10:10:13;24.30;72.00
1175;DHT22;576;48.418;10.074;2022-10-30T10:12:54;24.30;71.90
1175;DHT22;576;48.418;10.074;2022-10-30T10:15:35;24.30;71.90
1175;DHT22;576;48.418;10.074;2022-10-30T10:18:10;24.40;71.90
1175;DHT22;576;48.418;10.074;2022-10-30T10:20:41;24.40;71.90
1175;DHT22;576;48.418;10.074;2022-10-30T10:23:16;24.40;71.90
1175;DHT22;576;48.418;10.074;2022-10-30T10:25:50;24.50;71.70
1175;DHT22;576;48.418;10.074;2022-10-30T10:28:42;24.60;71.50
1175;DHT22;576;48.418;10.074;2022-10-30T10:31:23;24.70;71.20
1175;DHT22;576;48.418;10.074;2022-10-30T10:34:08;24.80;70.90
1175;DHT22;576;48.418;10.074;2022-10-30T10:36:46;25.00;70.60
1175;DHT22;576;48.418;10.074;2022-10-30T10:39:27;25.20;70.10
1175;DHT22;576;48.418;10.074;2022-10-30T10:42:14;25.40;69.60
1175;DHT22;576;48.418;10.074;2022-10-30T10:44:57;25.50;69.30
1175;DHT22;576;48.418;10.074;2022-10-30T10:50:36;25.80;68.50
1175;DHT22;576;48.418;10.074;2022-10-30T10:53:13;25.90;68.30
1175;DHT22;576;48.418;10.074;2022-10-30T10:55:48;26.00;68.00
1175;DHT22;576;48.418;10.074;2022-10-30T10:58:24;26.10;67.90
1175;DHT22;576;48.418;10.074;2022-10-30T11:00:55;26.20;67.60
1175;DHT22;576;48.418;10.074;2022-10-30T11:03:31;26.30;67.30
1175;DHT22;576;48.418;10.074;2022-10-30T11:06:18;26.30;67.40
1175;DHT22;576;48.418;10.074;2022-10-30T11:08:48;26.40;67.20
1175;DHT22;576;48.418;10.074;2022-10-30T11:11:17;26.50;67.00
1175;DHT22;576;48.418;10.074;2022-10-30T11:13:45;26.50;66.90
1175;DHT22;576;48.418;10.074;2022-10-30T11:16:20;26.50;66.80
1175;DHT22;576;48.418;10.074;2022-10-30T11:18:56;26.50;66.90
1175;DHT22;576;48.418;10.074;2022-10-30T11:21:26;26.50;66.90
1175;DHT22;576;48.418;10.074;2022-10-30T11:23:56;26.50;67.00
1175;DHT22;576;48.418;10.074;2022-10-30T11:26:28;26.50;67.60
1175;DHT22;576;48.418;10.074;2022-10-30T11:29:01;26.50;67.70
1175;DHT22;576;48.418;10.074;2022-10-30T11:31:31;26.60;67.70
1175;DHT22;576;48.418;10.074;2022-10-30T11:34:31;26.60;67.70
1175;DHT22;576;48.418;10.074;2022-10-30T11:36:59;26.60;67.70
1175;DHT22;576;48.418;10.074;2022-10-30T11:39:29;26.50;67.70
1175;DHT22;576;48.418;10.074;2022-10-30T11:42:01;26.50;67.70
1175;DHT22;576;48.418;10.074;2022-10-30T11:44:35;26.50;67.80
1175;DHT22;576;48.418;10.074;2022-10-30T11:47:05;26.60;67.70
1175;DHT22;576;48.418;10.074;2022-10-30T11:49:43;26.60;67.70
1175;DHT22;576;48.418;10.074;2022-10-30T11:52:14;26.60;67.70
1175;DHT22;576;48.418;10.074;2022-10-30T11:54:44;26.60;67.60
1175;DHT22;576;48.418;10.074;2022-10-30T11:57:20;26.60;67.50
1175;DHT22;576;48.418;10.074;2022-10-30T11:59:52;26.60;67.50
1175;DHT22;576;48.418;10.074;2022-10-30T12:02:28;26.60;67.60
1175;DHT22;576;48.418;10.074;2022-10-30T12:05:00;26.60;67.40
1175;DHT22;576;48.418;10.074;2022-10-30T12:07:30;26.60;67.30
1175;DHT22;576;48.418;10.074;2022-10-30T12:09:58;26.60;67.20
1175;DHT22;576;48.418;10.074;2022-10-30T12:12:31;26.60;67.20
1175;DHT22;576;48.418;10.074;2022-10-30T12:15:09;26.60;67.10
1175;DHT22;576;48.418;10.074;2022-10-30T12:17:50;26.60;67.10
1175;DHT22;576;48.418;10.074;2022-10-30T12:20:19;26.60;67.00
1175;DHT22;576;48.418;10.074;2022-10-30T12:22:48;26.60;67.00
1175;DHT22;576;48.418;10.074;2022-10-30T12:25:21;26.60;66.90
1175;DHT22;576;48.418;10.074;2022-10-30T12:27:57;26.60;66.90
1175;DHT22;576;48.418;10.074;2022-10-30T12:30:28;26.60;66.90
1175;DHT22;576;48.418;10.074;2022-10-30T12:33:00;26.60;66.80
1175;DHT22;576;48.418;10.074;2022-10-30T12:35:43;26.60;66.90
1175;DHT22;576;48.418;10.074;2022-10-30T12:38:19;26.50;67.10
1175;DHT22;576;48.418;10.074;2022-10-30T12:40:57;26.60;66.90
1175;DHT22;576;48.418;10.074;2022-10-30T12:43:27;26.60;66.80
1175;DHT22;576;48.418;10.074;2022-10-30T12:46:01;26.60;66.80
1175;DHT22;576;48.418;10.074;2022-10-30T12:48:36;26.60;66.70
1175;DHT22;576;48.418;10.074;2022-10-30T12:51:15;26.60;66.60
1175;DHT22;576;48.418;10.074;2022-10-30T12:53:55;26.70;66.50
1175;DHT22;576;48.418;10.074;2022-10-30T12:56:29;26.60;66.60
1175;DHT22;576;48.418;10.074;2022-10-30T12:59:10;26.70;66.50
1175;DHT22;576;48.418;10.074;2022-10-30T13:01:44;26.70;66.40
1175;DHT22;576;48.418;10.074;2022-10-30T13:04:17;26.70;66.50
1175;DHT22;576;48.418;10.074;2022-10-30T13:06:50;26.70;66.60
1175;DHT22;576;48.418;10.074;2022-10-30T13:09:24;26.70;66.50
1175;DHT22;576;48.418;10.074;2022-10-30T13:11:59;26.70;66.50
1175;DHT22;576;48.418;10.074;2022-10-30T13:14:34;26.70;66.40
1175;DHT22;576;48.418;10.074;2022-10-30T13:17:09;26.70;66.40
1175;DHT22;576;48.418;10.074;2022-10-30T13:19:39;26.70;66.50
1175;DHT22;576;48.418;10.074;2022-10-30T13:22:14;26.70;66.40
1175;DHT22;576;48.418;10.074;2022-10-30T13:24:49;26.70;66.40
1175;DHT22;576;48.418;10.074;2022-10-30T13:27:32;26.60;66.50
1175;DHT22;576;48.418;10.074;2022-10-30T13:30:11;26.60;66.70
1175;DHT22;576;48.418;10.074;2022-10-30T13:32:49;26.60;66.80
1175;DHT22;576;48.418;10.074;2022-10-30T13:35:29;26.60;66.90
1175;DHT22;576;48.418;10.074;2022-10-30T13:38:09;26.50;67.00
1175;DHT22;576;48.418;10.074;2022-10-30T13:40:42;26.50;67.10
1175;DHT22;576;48.418;10.074;2022-10-30T13:43:20;26.50;67.20
1175;DHT22;576;48.418;10.074;2022-10-30T13:46:02;26.40;67.30
1175;DHT22;576;48.418;10.074;2022-10-30T13:48:44;26.40;67.30
1175;DHT22;576;48.418;10.074;2022-10-30T13:51:26;26.40;67.30
1175;DHT22;576;48.418;10.074;2022-10-30T13:54:04;26.40;67.40
1175;DHT22;576;48.418;10.074;2022-10-30T13:56:36;26.30;67.50
1175;DHT22;576;48.418;10.074;2022-10-30T13:59:14;26.30;67.50
1175;DHT22;576;48.418;10.074;2022-10-30T14:01:51;26.30;67.50
1175;DHT22;576;48.418;10.074;2022-10-30T14:04:31;26.30;67.50
1175;DHT22;576;48.418;10.074;2022-10-30T14:07:19;26.30;67.50
1175;DHT22;576;48.418;10.074;2022-10-30T14:09:57;26.30;67.40
1175;DHT22;576;48.418;10.074;2022-10-30T14:12:51;26.20;67.40
1175;DHT22;576;48.418;10.074;2022-10-30T14:15:27;26.20;67.50
1175;DHT22;576;48.418;10.074;2022-10-30T14:18:22;26.10;67.70
1175;DHT22;576;48.418;10.074;2022-10-30T14:20:52;26.10;67.70
1175;DHT22;576;48.418;10.074;2022-10-30T14:23:22;26.10;67.80
1175;DHT22;576;48.418;10.074;2022-10-30T14:26:20;26.10;67.90
1175;DHT22;576;48.418;10.074;2022-10-30T14:28:49;26.00;67.90
1175;DHT22;576;48.418;10.074;2022-10-30T14:31:19;26.00;68.00
1175;DHT22;576;48.418;10.074;2022-10-30T14:33:59;26.00;68.10
1175;DHT22;576;48.418;10.074;2022-10-30T14:36:48;25.90;68.20
1175;DHT22;576;48.418;10.074;2022-10-30T14:39:27;25.90;68.30
1175;DHT22;576;48.418;10.074;2022-10-30T14:42:07;25.90;68.50
1175;DHT22;576;48.418;10.074;2022-10-30T14:44:51;25.90;68.50
1175;DHT22;576;48.418;10.074;2022-10-30T14:47:53;25.90;68.50
1175;DHT22;576;48.418;10.074;2022-10-30T14:50:31;25.90;68.60
1175;DHT22;576;48.418;10.074;2022-10-30T14:56:04;25.90;68.70
1175;DHT22;576;48.418;10.074;2022-10-30T14:58:36;25.80;68.70
1175;DHT22;576;48.418;10.074;2022-10-30T15:01:28;25.80;68.80
1175;DHT22;576;48.418;10.074;2022-10-30T15:04:10;25.80;68.80
1175;DHT22;576;48.418;10.074;2022-10-30T15:09:40;25.70;68.90
1175;DHT22;576;48.418;10.074;2022-10-30T15:12:20;25.70;68.90
1175;DHT22;576;48.418;10.074;2022-10-30T15:14:55;25.60;68.90
1175;DHT22;576;48.418;10.074;2022-10-30T15:17:29;25.60;68.80
1175;DHT22;576;48.418;10.074;2022-10-30T15:20:00;25.60;68.90
1175;DHT22;576;48.418;10.074;2022-10-30T15:22:30;25.50;68.90
1175;DHT22;576;48.418;10.074;2022-10-30T15:25:00;25.50;68.90
1175;DHT22;576;48.418;10.074;2022-10-30T15:27:29;25.50;69.00
1175;DHT22;576;48.418;10.074;2022-10-30T15:30:01;25.50;68.90
1175;DHT22;576;48.418;10.074;2022-10-30T15:32:30;25.50;68.90
1175;DHT22;576;48.418;10.074;2022-10-30T15:35:01;25.40;69.00
1175;DHT22;576;48.418;10.074;2022-10-30T15:37:29;25.40;69.00
1175;DHT22;576;48.418;10.074;2022-10-30T15:40:15;25.40;69.00
1175;DHT22;576;48.418;10.074;2022-10-30T15:42:44;25.40;69.00
1175;DHT22;576;48.418;10.074;2022-10-30T15:45:17;25.40;69.00
1175;DHT22;576;48.418;10.074;2022-10-30T15:47:47;25.30;69.00
1175;DHT22;576;48.418;10.074;2022-10-30T15:50:17;25.30;69.00
1175;DHT22;576;48.418;10.074;2022-10-30T15:52:47;25.30;68.90
1175;DHT22;576;48.418;10.074;2022-10-30T15:55:26;25.30;69.10
1175;DHT22;576;48.418;10.074;2022-10-30T15:57:56;25.30;69.10
1175;DHT22;576;48.418;10.074;2022-10-30T16:00:40;25.30;69.20
1175;DHT22;576;48.418;10.074;2022-10-30T16:03:16;25.30;69.30
1175;DHT22;576;48.418;10.074;2022-10-30T16:05:44;25.30;69.30
1175;DHT22;576;48.418;10.074;2022-10-30T16:08:21;25.30;69.40
1175;DHT22;576;48.418;10.074;2022-10-30T16:10:52;25.30;69.40
1175;DHT22;576;48.418;10.074;2022-10-30T16:13:24;25.30;69.80
1175;DHT22;576;48.418;10.074;2022-10-30T16:15:56;25.30;70.50
1175;DHT22;576;48.418;10.074;2022-10-30T16:18:27;25.30;70.90
1175;DHT22;576;48.418;10.074;2022-10-30T16:21:00;25.30;70.90
1175;DHT22;576;48.418;10.074;2022-10-30T16:23:29;25.30;71.20
1175;DHT22;576;48.418;10.074;2022-10-30T16:26:03;25.40;71.10
1175;DHT22;576;48.418;10.074;2022-10-30T16:28:34;25.40;71.20
1175;DHT22;576;48.418;10.074;2022-10-30T16:31:06;25.40;71.10
1175;DHT22;576;48.418;10.074;2022-10-30T16:33:36;25.40;71.10
1175;DHT22;576;48.418;10.074;2022-10-30T16:36:06;25.40;71.00
1175;DHT22;576;48.418;10.074;2022-10-30T16:38:38;25.40;71.10
1175;DHT22;576;48.418;10.074;2022-10-30T16:41:07;25.40;71.10
1175;DHT22;576;48.418;10.074;2022-10-30T16:43:40;25.40;70.90
1175;DHT22;576;48.418;10.074;2022-10-30T16:46:32;25.40;70.80
1175;DHT22;576;48.418;10.074;2022-10-30T16:49:04;25.50;71.10
1175;DHT22;576;48.418;10.074;2022-10-30T16:51:33;25.50;70.90
1175;DHT22;576;48.418;10.074;2022-10-30T16:54:04;25.60;70.80
1175;DHT22;576;48.418;10.074;2022-10-30T16:56:33;25.60;70.80
1175;DHT22;576;48.418;10.074;2022-10-30T16:59:06;25.60;70.70
1175;DHT22;576;48.418;10.074;2022-10-30T17:01:36;25.70;70.60